sensor_id;sensor_type;location;lat;lon;timestamp;P1;P2;P0
73825;PMS5003;64145;55.060;73.168;2023-07-28T00:00:34;92.00;88.67;57.67
73825;PMS5003;64145;55.060;73.168;2023-07-28T00:02:59;99.00;93.33;61.00
73825;PMS5003;64145;55.060;73.168;2023-07-28T00:05:25;91.67;86.67;56.67
73825;PMS5003;64145;55.060;73.168;2023-07-28T00:07:51;86.00;81.00;52.00
73825;PMS5003;64145;55.060;73.168;2023-07-28T00:10:19;87.25;82.00;51.50
73825;PMS5003;64145;55.060;73.168;2023-07-28T00:12:45;79.00;75.00;48.00
73825;PMS5003;64145;55.060;73.168;2023-07-28T00:15:10;83.00;78.00;50.67
73825;PMS5003;64145;55.060;73.168;2023-07-28T00:17:36;76.00;73.00;49.00
73825;PMS5003;64145;55.060;73.168;2023-07-28T00:20:02;80.00;76.00;50.00
73825;PMS5003;64145;55.060;73.168;2023-07-28T00:22:27;68.33;58.00;38.67
73825;PMS5003;64145;55.060;73.168;2023-07-28T00:24:53;62.33;50.33;33.00
73825;PMS5003;64145;55.060;73.168;2023-07-28T00:27:18;70.00;59.33;38.67
73825;PMS5003;64145;55.060;73.168;2023-07-28T00:29:44;71.00;59.00;39.00
73825;PMS5003;64145;55.060;73.168;2023-07-28T00:32:10;66.00;54.00;36.00
73825;PMS5003;64145;55.060;73.168;2023-07-28T00:34:35;65.67;54.00;35.67
73825;PMS5003;64145;55.060;73.168;2023-07-28T00:37:01;68.00;56.75;37.00
73825;PMS5003;64145;55.060;73.168;2023-07-28T00:39:26;65.00;53.00;34.00
73825;PMS5003;64145;55.060;73.168;2023-07-28T00:41:52;65.33;52.67;33.00
73825;PMS5003;64145;55.060;73.168;2023-07-28T00:44:18;63.67;53.00;33.67
73825;PMS5003;64145;55.060;73.168;2023-07-28T00:46:44;66.00;56.00;36.67
73825;PMS5003;64145;55.060;73.168;2023-07-28T00:49:09;69.00;58.75;37.00
73825;PMS5003;64145;55.060;73.168;2023-07-28T00:51:35;64.67;52.00;34.67
73825;PMS5003;64145;55.060;73.168;2023-07-28T00:54:02;66.00;54.50;35.25
73825;PMS5003;64145;55.060;73.168;2023-07-28T00:56:29;70.25;59.00;39.00
73825;PMS5003;64145;55.060;73.168;2023-07-28T00:58:55;62.67;50.00;33.67
73825;PMS5003;64145;55.060;73.168;2023-07-28T01:01:21;60.00;48.25;33.00
73825;PMS5003;64145;55.060;73.168;2023-07-28T01:03:46;59.00;47.00;32.00
73825;PMS5003;64145;55.060;73.168;2023-07-28T01:06:35;56.67;45.33;30.33
73825;PMS5003;64145;55.060;73.168;2023-07-28T01:09:05;60.25;48.25;32.25
73825;PMS5003;64145;55.060;73.168;2023-07-28T01:11:35;59.50;47.50;31.50
73825;PMS5003;64145;55.060;73.168;2023-07-28T01:14:00;59.00;47.00;31.00
73825;PMS5003;64145;55.060;73.168;2023-07-28T01:16:26;59.67;48.00;31.67
73825;PMS5003;64145;55.060;73.168;2023-07-28T01:18:52;61.33;49.33;32.33
73825;PMS5003;64145;55.060;73.168;2023-07-28T01:21:20;60.33;48.00;31.67
73825;PMS5003;64145;55.060;73.168;2023-07-28T01:23:59;66.50;54.00;37.00
73825;PMS5003;64145;55.060;73.168;2023-07-28T01:26:31;70.75;60.75;39.50
73825;PMS5003;64145;55.060;73.168;2023-07-28T01:28:57;65.50;56.00;37.00
73825;PMS5003;64145;55.060;73.168;2023-07-28T01:31:24;66.00;55.00;36.25
73825;PMS5003;64145;55.060;73.168;2023-07-28T01:33:50;68.00;57.00;38.00
73825;PMS5003;64145;55.060;73.168;2023-07-28T01:36:16;68.00;57.67;38.67
73825;PMS5003;64145;55.060;73.168;2023-07-28T01:38:41;65.00;51.00;34.00
73825;PMS5003;64145;55.060;73.168;2023-07-28T01:41:07;55.67;44.33;29.67
73825;PMS5003;64145;55.060;73.168;2023-07-28T01:43:32;49.00;40.00;27.00
73825;PMS5003;64145;55.060;73.168;2023-07-28T01:45:58;43.33;37.00;25.00
73825;PMS5003;64145;55.060;73.168;2023-07-28T01:48:24;43.00;36.00;25.33
73825;PMS5003;64145;55.060;73.168;2023-07-28T01:50:49;45.00;37.00;26.00
73825;PMS5003;64145;55.060;73.168;2023-07-28T01:53:15;49.00;40.00;27.00
73825;PMS5003;64145;55.060;73.168;2023-07-28T01:55:40;47.00;39.33;26.00
73825;PMS5003;64145;55.060;73.168;2023-07-28T01:58:06;49.00;41.67;27.00
73825;PMS5003;64145;55.060;73.168;2023-07-28T02:00:32;55.00;45.00;30.00
73825;PMS5003;64145;55.060;73.168;2023-07-28T02:02:57;55.67;46.67;31.00
73825;PMS5003;64145;55.060;73.168;2023-07-28T02:05:26;55.25;46.00;31.00
73825;PMS5003;64145;55.060;73.168;2023-07-28T02:07:52;62.00;50.00;32.00
73825;PMS5003;64145;55.060;73.168;2023-07-28T02:10:17;61.00;49.00;32.00
73825;PMS5003;64145;55.060;73.168;2023-07-28T02:12:43;63.00;50.33;33.00
73825;PMS5003;64145;55.060;73.168;2023-07-28T02:15:10;62.25;50.50;34.00
73825;PMS5003;64145;55.060;73.168;2023-07-28T02:17:36;61.00;50.50;33.75
73825;PMS5003;64145;55.060;73.168;2023-07-28T02:20:01;61.67;50.00;34.00
73825;PMS5003;64145;55.060;73.168;2023-07-28T02:22:28;61.00;50.00;33.00
73825;PMS5003;64145;55.060;73.168;2023-07-28T02:24:54;60.00;48.00;32.00
73825;PMS5003;64145;55.060;73.168;2023-07-28T02:27:20;57.00;46.00;31.00
73825;PMS5003;64145;55.060;73.168;2023-07-28T02:29:46;59.50;48.00;32.50
73825;PMS5003;64145;55.060;73.168;2023-07-28T02:32:11;72.67;63.33;41.33
73825;PMS5003;64145;55.060;73.168;2023-07-28T02:34:37;71.00;61.00;40.67
73825;PMS5003;64145;55.060;73.168;2023-07-28T02:37:02;69.00;56.33;37.00
73825;PMS5003;64145;55.060;73.168;2023-07-28T02:39:28;69.00;58.00;37.33
73825;PMS5003;64145;55.060;73.168;2023-07-28T02:41:54;67.00;53.50;37.00
73825;PMS5003;64145;55.060;73.168;2023-07-28T02:44:19;65.67;53.00;36.00
73825;PMS5003;64145;55.060;73.168;2023-07-28T02:46:45;64.67;53.00;35.00
73825;PMS5003;64145;55.060;73.168;2023-07-28T02:49:10;60.00;48.00;32.00
73825;PMS5003;64145;55.060;73.168;2023-07-28T02:51:36;57.00;46.33;31.00
73825;PMS5003;64145;55.060;73.168;2023-07-28T02:54:02;57.00;45.00;30.00
73825;PMS5003;64145;55.060;73.168;2023-07-28T02:56:28;56.00;45.00;30.00
73825;PMS5003;64145;55.060;73.168;2023-07-28T02:58:54;49.33;42.00;29.00
73825;PMS5003;64145;55.060;73.168;2023-07-28T03:01:19;48.00;40.00;27.00
73825;PMS5003;64145;55.060;73.168;2023-07-28T03:03:46;42.75;36.50;25.75
73825;PMS5003;64145;55.060;73.168;2023-07-28T03:06:12;40.00;33.75;23.00
73825;PMS5003;64145;55.060;73.168;2023-07-28T03:08:38;35.33;32.00;23.00
73825;PMS5003;64145;55.060;73.168;2023-07-28T03:11:03;31.33;29.33;21.33
73825;PMS5003;64145;55.060;73.168;2023-07-28T03:13:29;34.67;32.00;21.00
73825;PMS5003;64145;55.060;73.168;2023-07-28T03:16:01;35.50;32.50;22.50
73825;PMS5003;64145;55.060;73.168;2023-07-28T03:18:26;32.00;30.00;20.33
73825;PMS5003;64145;55.060;73.168;2023-07-28T03:20:52;27.00;27.00;20.00
73825;PMS5003;64145;55.060;73.168;2023-07-28T03:23:18;26.00;23.00;19.00
73825;PMS5003;64145;55.060;73.168;2023-07-28T03:25:43;25.00;21.00;17.00
73825;PMS5003;64145;55.060;73.168;2023-07-28T03:28:09;28.67;25.67;18.00
73825;PMS5003;64145;55.060;73.168;2023-07-28T03:30:34;31.00;29.00;20.33
73825;PMS5003;64145;55.060;73.168;2023-07-28T03:33:00;34.00;31.33;22.33
73825;PMS5003;64145;55.060;73.168;2023-07-28T03:35:25;35.67;32.00;22.00
73825;PMS5003;64145;55.060;73.168;2023-07-28T03:37:51;39.00;34.00;23.00
73825;PMS5003;64145;55.060;73.168;2023-07-28T03:40:16;36.00;32.00;23.00
73825;PMS5003;64145;55.060;73.168;2023-07-28T03:42:42;31.00;29.33;21.00
73825;PMS5003;64145;55.060;73.168;2023-07-28T03:45:08;30.00;29.00;19.00
73825;PMS5003;64145;55.060;73.168;2023-07-28T03:47:33;29.00;28.00;19.00
73825;PMS5003;64145;55.060;73.168;2023-07-28T03:49:59;28.00;28.00;19.00
73825;PMS5003;64145;55.060;73.168;2023-07-28T03:52:24;26.00;26.00;19.00
73825;PMS5003;64145;55.060;73.168;2023-07-28T03:54:51;25.50;25.50;18.50
73825;PMS5003;64145;55.060;73.168;2023-07-28T03:57:17;28.00;27.33;19.00
73825;PMS5003;64145;55.060;73.168;2023-07-28T03:59:43;23.00;22.67;18.00
73825;PMS5003;64145;55.060;73.168;2023-07-28T04:02:08;22.00;20.00;15.00
73825;PMS5003;64145;55.060;73.168;2023-07-28T04:04:35;20.00;18.00;14.00
73825;PMS5003;64145;55.060;73.168;2023-07-28T04:07:02;20.00;19.00;13.00
73825;PMS5003;64145;55.060;73.168;2023-07-28T04:09:27;20.00;19.00;12.00
73825;PMS5003;64145;55.060;73.168;2023-07-28T04:11:53;20.00;18.00;12.00
73825;PMS5003;64145;55.060;73.168;2023-07-28T04:14:18;17.67;16.67;10.67
73825;PMS5003;64145;55.060;73.168;2023-07-28T04:16:44;17.33;16.67;9.67
73825;PMS5003;64145;55.060;73.168;2023-07-28T04:19:10;18.00;17.00;10.00
73825;PMS5003;64145;55.060;73.168;2023-07-28T04:21:35;17.00;16.00;8.00
73825;PMS5003;64145;55.060;73.168;2023-07-28T04:24:07;18.00;18.00;9.00
73825;PMS5003;64145;55.060;73.168;2023-07-28T04:26:34;17.25;16.25;8.00
73825;PMS5003;64145;55.060;73.168;2023-07-28T04:28:59;12.33;11.33;6.00
73825;PMS5003;64145;55.060;73.168;2023-07-28T04:31:25;12.00;11.00;6.00
73825;PMS5003;64145;55.060;73.168;2023-07-28T04:33:51;11.00;11.00;6.75
73825;PMS5003;64145;55.060;73.168;2023-07-28T04:36:16;10.67;9.67;7.67
73825;PMS5003;64145;55.060;73.168;2023-07-28T04:38:42;9.00;9.00;5.00
73825;PMS5003;64145;55.060;73.168;2023-07-28T04:41:08;9.00;9.00;7.00
73825;PMS5003;64145;55.060;73.168;2023-07-28T04:43:33;11.33;11.33;7.00
73825;PMS5003;64145;55.060;73.168;2023-07-28T04:45:59;11.00;9.00;5.00
73825;PMS5003;64145;55.060;73.168;2023-07-28T04:48:24;11.00;9.00;5.00
73825;PMS5003;64145;55.060;73.168;2023-07-28T04:50:50;8.00;7.67;5.00
73825;PMS5003;64145;55.060;73.168;2023-07-28T04:53:16;7.00;7.00;3.00
73825;PMS5003;64145;55.060;73.168;2023-07-28T04:55:42;8.00;8.00;4.00
73825;PMS5003;64145;55.060;73.168;2023-07-28T04:58:07;10.00;9.00;5.00
73825;PMS5003;64145;55.060;73.168;2023-07-28T05:00:33;7.00;7.00;4.00
73825;PMS5003;64145;55.060;73.168;2023-07-28T05:02:58;9.00;9.00;5.67
73825;PMS5003;64145;55.060;73.168;2023-07-28T05:05:25;9.00;9.00;5.00
73825;PMS5003;64145;55.060;73.168;2023-07-28T05:07:50;10.67;10.00;5.00
73825;PMS5003;64145;55.060;73.168;2023-07-28T05:10:16;11.00;10.00;6.00
73825;PMS5003;64145;55.060;73.168;2023-07-28T05:12:42;10.25;10.25;6.50
73825;PMS5003;64145;55.060;73.168;2023-07-28T05:15:07;9.00;8.00;6.00
73825;PMS5003;64145;55.060;73.168;2023-07-28T05:17:36;8.50;8.50;5.00
73825;PMS5003;64145;55.060;73.168;2023-07-28T05:20:02;9.00;9.00;4.50
73825;PMS5003;64145;55.060;73.168;2023-07-28T05:22:27;9.00;9.00;6.00
73825;PMS5003;64145;55.060;73.168;2023-07-28T05:24:53;8.00;7.67;4.00
73825;PMS5003;64145;55.060;73.168;2023-07-28T05:27:19;8.33;8.00;5.00
73825;PMS5003;64145;55.060;73.168;2023-07-28T05:29:44;8.00;8.00;4.00
73825;PMS5003;64145;55.060;73.168;2023-07-28T05:32:10;8.00;8.00;5.00
73825;PMS5003;64145;55.060;73.168;2023-07-28T05:34:35;9.00;9.00;5.00
73825;PMS5003;64145;55.060;73.168;2023-07-28T05:37:03;11.00;10.00;6.50
73825;PMS5003;64145;55.060;73.168;2023-07-28T05:39:28;8.33;6.33;4.67
73825;PMS5003;64145;55.060;73.168;2023-07-28T05:41:54;7.00;7.00;4.00
73825;PMS5003;64145;55.060;73.168;2023-07-28T05:44:19;8.00;8.00;3.00
73825;PMS5003;64145;55.060;73.168;2023-07-28T05:46:45;10.00;10.00;4.00
73825;PMS5003;64145;55.060;73.168;2023-07-28T05:49:13;7.00;7.00;4.00
73825;PMS5003;64145;55.060;73.168;2023-07-28T05:51:39;7.00;7.00;5.00
73825;PMS5003;64145;55.060;73.168;2023-07-28T05:54:05;8.00;8.00;5.00
73825;PMS5003;64145;55.060;73.168;2023-07-28T05:56:30;8.00;8.00;4.00
73825;PMS5003;64145;55.060;73.168;2023-07-28T05:58:56;8.00;8.00;4.00
73825;PMS5003;64145;55.060;73.168;2023-07-28T06:01:22;6.75;6.75;3.25
73825;PMS5003;64145;55.060;73.168;2023-07-28T06:03:47;10.00;10.00;6.00
73825;PMS5003;64145;55.060;73.168;2023-07-28T06:06:13;7.00;7.00;4.00
73825;PMS5003;64145;55.060;73.168;2023-07-28T06:08:39;9.00;9.00;5.67
73825;PMS5003;64145;55.060;73.168;2023-07-28T06:11:05;8.33;8.33;5.00
73825;PMS5003;64145;55.060;73.168;2023-07-28T06:13:31;7.50;7.50;4.00
73825;PMS5003;64145;55.060;73.168;2023-07-28T06:15:56;6.00;6.00;3.00
73825;PMS5003;64145;55.060;73.168;2023-07-28T06:18:23;7.00;7.00;4.00
73825;PMS5003;64145;55.060;73.168;2023-07-28T06:20:50;8.50;8.50;4.00
73825;PMS5003;64145;55.060;73.168;2023-07-28T06:23:16;6.00;6.00;3.00
73825;PMS5003;64145;55.060;73.168;2023-07-28T06:25:41;6.67;6.67;4.33
73825;PMS5003;64145;55.060;73.168;2023-07-28T06:28:10;8.50;8.50;5.50
73825;PMS5003;64145;55.060;73.168;2023-07-28T06:30:36;8.00;7.00;4.00
73825;PMS5003;64145;55.060;73.168;2023-07-28T06:33:02;5.00;5.00;3.00
73825;PMS5003;64145;55.060;73.168;2023-07-28T06:35:28;7.00;7.00;4.50
73825;PMS5003;64145;55.060;73.168;2023-07-28T06:37:54;6.33;6.33;4.33
73825;PMS5003;64145;55.060;73.168;2023-07-28T06:40:19;7.00;7.00;3.00
73825;PMS5003;64145;55.060;73.168;2023-07-28T06:42:45;7.00;7.00;3.00
73825;PMS5003;64145;55.060;73.168;2023-07-28T06:45:11;7.00;7.00;4.00
73825;PMS5003;64145;55.060;73.168;2023-07-28T06:47:39;7.00;7.00;4.00
73825;PMS5003;64145;55.060;73.168;2023-07-28T06:50:04;6.00;6.00;3.00
73825;PMS5003;64145;55.060;73.168;2023-07-28T06:52:30;8.00;7.00;3.00
73825;PMS5003;64145;55.060;73.168;2023-07-28T06:54:56;7.00;7.00;4.00
73825;PMS5003;64145;55.060;73.168;2023-07-28T06:57:22;8.00;7.00;4.00
73825;PMS5003;64145;55.060;73.168;2023-07-28T06:59:48;7.00;7.00;5.00
73825;PMS5003;64145;55.060;73.168;2023-07-28T07:02:13;6.25;6.25;4.00
73825;PMS5003;64145;55.060;73.168;2023-07-28T07:04:39;7.00;7.00;3.00
73825;PMS5003;64145;55.060;73.168;2023-07-28T07:07:05;7.00;6.67;3.33
73825;PMS5003;64145;55.060;73.168;2023-07-28T07:09:30;7.00;7.00;4.00
73825;PMS5003;64145;55.060;73.168;2023-07-28T07:11:56;8.00;8.00;4.33
73825;PMS5003;64145;55.060;73.168;2023-07-28T07:14:22;8.00;7.00;4.00
73825;PMS5003;64145;55.060;73.168;2023-07-28T07:16:48;7.00;6.67;4.67
73825;PMS5003;64145;55.060;73.168;2023-07-28T07:19:14;7.00;6.25;4.75
73825;PMS5003;64145;55.060;73.168;2023-07-28T07:21:41;5.75;5.75;3.00
73825;PMS5003;64145;55.060;73.168;2023-07-28T07:24:07;5.00;5.00;3.00
73825;PMS5003;64145;55.060;73.168;2023-07-28T07:26:36;8.00;7.00;4.00
73825;PMS5003;64145;55.060;73.168;2023-07-28T07:29:01;5.00;5.00;4.00
73825;PMS5003;64145;55.060;73.168;2023-07-28T07:31:28;7.00;7.00;4.00
73825;PMS5003;64145;55.060;73.168;2023-07-28T07:33:54;5.33;5.33;3.00
73825;PMS5003;64145;55.060;73.168;2023-07-28T07:36:19;6.00;6.00;3.00
73825;PMS5003;64145;55.060;73.168;2023-07-28T07:38:45;6.50;6.50;3.50
73825;PMS5003;64145;55.060;73.168;2023-07-28T07:41:11;6.00;6.00;3.00
73825;PMS5003;64145;55.060;73.168;2023-07-28T07:43:38;6.75;6.75;4.25
73825;PMS5003;64145;55.060;73.168;2023-07-28T07:46:04;8.00;8.00;5.00
73825;PMS5003;64145;55.060;73.168;2023-07-28T07:48:29;6.00;6.00;4.00
73825;PMS5003;64145;55.060;73.168;2023-07-28T07:50:55;4.00;4.00;2.00
73825;PMS5003;64145;55.060;73.168;2023-07-28T07:53:21;7.00;7.00;3.00
73825;PMS5003;64145;55.060;73.168;2023-07-28T07:55:47;6.00;6.00;4.00
73825;PMS5003;64145;55.060;73.168;2023-07-28T07:58:13;6.25;6.00;2.00
73825;PMS5003;64145;55.060;73.168;2023-07-28T08:00:39;6.33;5.67;3.00
73825;PMS5003;64145;55.060;73.168;2023-07-28T08:03:04;6.00;5.00;2.00
73825;PMS5003;64145;55.060;73.168;2023-07-28T08:05:30;4.33;4.33;3.00
73825;PMS5003;64145;55.060;73.168;2023-07-28T08:07:56;6.00;6.00;3.50
73825;PMS5003;64145;55.060;73.168;2023-07-28T08:10:22;8.25;8.25;4.00
73825;PMS5003;64145;55.060;73.168;2023-07-28T08:12:48;5.00;5.00;4.00
73825;PMS5003;64145;55.060;73.168;2023-07-28T08:15:13;4.00;4.00;3.00
73825;PMS5003;64145;55.060;73.168;2023-07-28T08:17:39;7.00;7.00;4.00
73825;PMS5003;64145;55.060;73.168;2023-07-28T08:20:08;6.00;6.00;4.00
73825;PMS5003;64145;55.060;73.168;2023-07-28T08:22:35;6.00;5.00;4.00
73825;PMS5003;64145;55.060;73.168;2023-07-28T08:25:00;6.33;6.33;3.00
73825;PMS5003;64145;55.060;73.168;2023-07-28T08:27:26;7.00;7.00;3.00
73825;PMS5003;64145;55.060;73.168;2023-07-28T08:29:51;7.00;6.67;3.00
73825;PMS5003;64145;55.060;73.168;2023-07-28T08:32:17;7.00;7.00;4.00
73825;PMS5003;64145;55.060;73.168;2023-07-28T08:34:43;5.00;5.00;4.00
73825;PMS5003;64145;55.060;73.168;2023-07-28T08:37:08;6.00;6.00;4.00
73825;PMS5003;64145;55.060;73.168;2023-07-28T08:39:34;6.67;6.00;4.00
73825;PMS5003;64145;55.060;73.168;2023-07-28T08:42:00;7.00;6.25;3.00
73825;PMS5003;64145;55.060;73.168;2023-07-28T08:44:26;3.00;3.00;2.00
73825;PMS5003;64145;55.060;73.168;2023-07-28T08:46:52;4.00;4.00;2.00
73825;PMS5003;64145;55.060;73.168;2023-07-28T08:49:18;4.00;4.00;3.00
73825;PMS5003;64145;55.060;73.168;2023-07-28T08:51:48;6.00;5.00;3.00
73825;PMS5003;64145;55.060;73.168;2023-07-28T08:54:14;5.00;5.00;2.00
73825;PMS5003;64145;55.060;73.168;2023-07-28T08:56:42;5.00;5.00;1.00
73825;PMS5003;64145;55.060;73.168;2023-07-28T08:59:08;6.00;4.00;2.00
73825;PMS5003;64145;55.060;73.168;2023-07-28T09:01:38;4.00;4.00;2.00
73825;PMS5003;64145;55.060;73.168;2023-07-28T09:04:08;6.00;6.00;2.50
73825;PMS5003;64145;55.060;73.168;2023-07-28T09:06:35;4.75;4.00;2.00
73825;PMS5003;64145;55.060;73.168;2023-07-28T09:09:02;6.00;5.00;2.00
73825;PMS5003;64145;55.060;73.168;2023-07-28T09:11:27;5.00;5.00;2.00
73825;PMS5003;64145;55.060;73.168;2023-07-28T09:13:54;6.00;6.00;3.00
73825;PMS5003;64145;55.060;73.168;2023-07-28T09:16:20;5.75;5.00;3.00
73825;PMS5003;64145;55.060;73.168;2023-07-28T09:18:46;5.00;4.00;3.00
73825;PMS5003;64145;55.060;73.168;2023-07-28T09:21:15;6.00;6.00;2.00
73825;PMS5003;64145;55.060;73.168;2023-07-28T09:23:42;5.75;5.75;2.00
73825;PMS5003;64145;55.060;73.168;2023-07-28T09:26:07;5.00;5.00;2.00
73825;PMS5003;64145;55.060;73.168;2023-07-28T09:28:38;5.00;5.00;2.00
73825;PMS5003;64145;55.060;73.168;2023-07-28T09:31:04;4.00;4.00;2.00
73825;PMS5003;64145;55.060;73.168;2023-07-28T09:33:31;4.00;3.00;2.00
73825;PMS5003;64145;55.060;73.168;2023-07-28T09:35:57;3.25;3.00;2.00
73825;PMS5003;64145;55.060;73.168;2023-07-28T09:38:22;3.00;3.00;2.00
73825;PMS5003;64145;55.060;73.168;2023-07-28T09:40:50;3.00;3.00;2.00
73825;PMS5003;64145;55.060;73.168;2023-07-28T09:43:16;2.00;2.00;1.00
73825;PMS5003;64145;55.060;73.168;2023-07-28T09:45:42;1.00;1.00;0.00
73825;PMS5003;64145;55.060;73.168;2023-07-28T09:48:09;2.25;2.25;1.00
73825;PMS5003;64145;55.060;73.168;2023-07-28T09:50:36;4.00;4.00;1.00
73825;PMS5003;64145;55.060;73.168;2023-07-28T09:53:11;2.00;2.00;1.00
73825;PMS5003;64145;55.060;73.168;2023-07-28T09:55:39;5.00;5.00;3.00
73825;PMS5003;64145;55.060;73.168;2023-07-28T09:58:06;4.00;4.00;2.00
73825;PMS5003;64145;55.060;73.168;2023-07-28T10:00:34;4.00;4.00;2.00
73825;PMS5003;64145;55.060;73.168;2023-07-28T10:03:02;5.00;5.00;2.00
73825;PMS5003;64145;55.060;73.168;2023-07-28T10:05:28;7.00;6.75;3.75
73825;PMS5003;64145;55.060;73.168;2023-07-28T10:07:54;6.25;6.00;2.50
73825;PMS5003;64145;55.060;73.168;2023-07-28T10:10:21;4.25;4.00;2.25
73825;PMS5003;64145;55.060;73.168;2023-07-28T10:12:50;5.00;4.00;2.67
73825;PMS5003;64145;55.060;73.168;2023-07-28T10:15:16;6.00;5.00;3.00
73825;PMS5003;64145;55.060;73.168;2023-07-28T10:17:47;6.50;5.50;3.00
73825;PMS5003;64145;55.060;73.168;2023-07-28T10:20:32;7.50;7.50;4.50
73825;PMS5003;64145;55.060;73.168;2023-07-28T10:23:40;6.75;6.75;4.75
73825;PMS5003;64145;55.060;73.168;2023-07-28T10:25:47;6.00;6.00;3.00
73825;PMS5003;64145;55.060;73.168;2023-07-28T10:28:30;8.00;8.00;3.00
73825;PMS5003;64145;55.060;73.168;2023-07-28T10:30:57;6.00;6.00;3.00
73825;PMS5003;64145;55.060;73.168;2023-07-28T10:33:35;6.00;6.00;4.00
73825;PMS5003;64145;55.060;73.168;2023-07-28T10:36:14;6.00;6.00;3.00
73825;PMS5003;64145;55.060;73.168;2023-07-28T10:38:40;5.00;5.00;3.00
73825;PMS5003;64145;55.060;73.168;2023-07-28T10:41:08;6.00;6.00;4.00
73825;PMS5003;64145;55.060;73.168;2023-07-28T10:43:34;5.00;5.00;3.00
73825;PMS5003;64145;55.060;73.168;2023-07-28T10:45:59;5.00;5.00;2.33
73825;PMS5003;64145;55.060;73.168;2023-07-28T10:48:25;4.00;4.00;2.00
73825;PMS5003;64145;55.060;73.168;2023-07-28T10:50:55;6.00;6.00;1.00
73825;PMS5003;64145;55.060;73.168;2023-07-28T10:53:20;6.00;6.00;2.33
73825;PMS5003;64145;55.060;73.168;2023-07-28T10:55:46;5.50;5.00;3.50
73825;PMS5003;64145;55.060;73.168;2023-07-28T10:58:12;5.00;5.00;3.33
73825;PMS5003;64145;55.060;73.168;2023-07-28T11:00:38;6.00;5.00;2.67
73825;PMS5003;64145;55.060;73.168;2023-07-28T11:03:04;6.00;6.00;2.50
73825;PMS5003;64145;55.060;73.168;2023-07-28T11:05:40;5.50;5.00;3.00
73825;PMS5003;64145;55.060;73.168;2023-07-28T11:08:05;6.00;6.00;4.67
73825;PMS5003;64145;55.060;73.168;2023-07-28T11:10:34;6.25;5.25;3.25
73825;PMS5003;64145;55.060;73.168;2023-07-28T11:13:01;5.67;5.67;3.00
73825;PMS5003;64145;55.060;73.168;2023-07-28T11:15:27;6.50;6.00;4.50
73825;PMS5003;64145;55.060;73.168;2023-07-28T11:17:53;6.00;6.00;4.00
73825;PMS5003;64145;55.060;73.168;2023-07-28T11:20:19;5.67;5.67;4.67
73825;PMS5003;64145;55.060;73.168;2023-07-28T11:22:45;6.75;6.75;4.00
73825;PMS5003;64145;55.060;73.168;2023-07-28T11:25:13;7.00;7.00;4.00
73825;PMS5003;64145;55.060;73.168;2023-07-28T11:27:39;8.00;8.00;5.00
73825;PMS5003;64145;55.060;73.168;2023-07-28T11:30:07;9.00;9.00;7.00
73825;PMS5003;64145;55.060;73.168;2023-07-28T11:32:35;10.00;10.00;6.25
73825;PMS5003;64145;55.060;73.168;2023-07-28T11:35:04;10.00;10.00;6.00
73825;PMS5003;64145;55.060;73.168;2023-07-28T11:37:31;10.50;10.50;6.50
73825;PMS5003;64145;55.060;73.168;2023-07-28T11:39:59;13.25;13.00;8.50
73825;PMS5003;64145;55.060;73.168;2023-07-28T11:42:25;18.00;15.00;9.25
73825;PMS5003;64145;55.060;73.168;2023-07-28T11:45:03;17.50;15.50;8.50
73825;PMS5003;64145;55.060;73.168;2023-07-28T11:47:28;18.75;18.25;11.75
73825;PMS5003;64145;55.060;73.168;2023-07-28T11:49:56;21.00;20.50;13.00
73825;PMS5003;64145;55.060;73.168;2023-07-28T11:52:33;18.00;17.00;11.00
73825;PMS5003;64145;55.060;73.168;2023-07-28T11:55:00;15.50;14.50;7.00
73825;PMS5003;64145;55.060;73.168;2023-07-28T11:57:26;14.50;13.50;8.00
73825;PMS5003;64145;55.060;73.168;2023-07-28T11:59:53;13.00;10.00;4.50
73825;PMS5003;64145;55.060;73.168;2023-07-28T12:02:29;13.00;12.00;6.00
73825;PMS5003;64145;55.060;73.168;2023-07-28T12:04:55;14.00;14.00;7.00
73825;PMS5003;64145;55.060;73.168;2023-07-28T12:09:55;9.00;9.00;5.00
73825;PMS5003;64145;55.060;73.168;2023-07-28T12:12:26;8.00;7.25;5.00
73825;PMS5003;64145;55.060;73.168;2023-07-28T12:14:52;8.00;7.00;4.00
73825;PMS5003;64145;55.060;73.168;2023-07-28T12:17:19;10.00;8.50;6.00
73825;PMS5003;64145;55.060;73.168;2023-07-28T12:22:22;9.25;8.50;6.25
73825;PMS5003;64145;55.060;73.168;2023-07-28T12:24:48;10.00;9.00;6.00
73825;PMS5003;64145;55.060;73.168;2023-07-28T12:27:13;9.00;8.33;5.00
73825;PMS5003;64145;55.060;73.168;2023-07-28T12:29:41;9.00;9.00;5.00
73825;PMS5003;64145;55.060;73.168;2023-07-28T12:32:07;7.67;7.67;6.67
73825;PMS5003;64145;55.060;73.168;2023-07-28T12:34:32;9.67;9.00;5.00
73825;PMS5003;64145;55.060;73.168;2023-07-28T12:36:58;9.00;8.00;5.00
73825;PMS5003;64145;55.060;73.168;2023-07-28T12:39:24;7.00;7.00;5.00
73825;PMS5003;64145;55.060;73.168;2023-07-28T12:41:50;7.33;7.33;5.00
73825;PMS5003;64145;55.060;73.168;2023-07-28T12:44:21;7.00;7.00;4.00
73825;PMS5003;64145;55.060;73.168;2023-07-28T12:46:47;7.75;7.25;4.00
73825;PMS5003;64145;55.060;73.168;2023-07-28T12:49:13;8.00;8.00;4.00
73825;PMS5003;64145;55.060;73.168;2023-07-28T12:51:40;8.00;8.00;5.00
73825;PMS5003;64145;55.060;73.168;2023-07-28T12:54:05;9.00;9.00;6.00
73825;PMS5003;64145;55.060;73.168;2023-07-28T12:56:32;7.00;7.00;4.00
73825;PMS5003;64145;55.060;73.168;2023-07-28T12:58:58;9.00;7.00;4.00
73825;PMS5003;64145;55.060;73.168;2023-07-28T13:01:25;7.00;7.00;5.00
73825;PMS5003;64145;55.060;73.168;2023-07-28T13:03:50;8.00;7.67;5.00
73825;PMS5003;64145;55.060;73.168;2023-07-28T13:06:16;8.00;8.00;4.00
73825;PMS5003;64145;55.060;73.168;2023-07-28T13:08:41;9.00;9.00;5.00
73825;PMS5003;64145;55.060;73.168;2023-07-28T13:11:07;7.67;7.67;5.33
73825;PMS5003;64145;55.060;73.168;2023-07-28T13:13:33;9.67;8.00;5.00
73825;PMS5003;64145;55.060;73.168;2023-07-28T13:15:58;8.00;8.00;5.33
73825;PMS5003;64145;55.060;73.168;2023-07-28T13:18:24;12.33;10.00;7.00
73825;PMS5003;64145;55.060;73.168;2023-07-28T13:20:50;11.50;9.50;6.50
73825;PMS5003;64145;55.060;73.168;2023-07-28T13:23:16;9.33;9.00;6.00
73825;PMS5003;64145;55.060;73.168;2023-07-28T13:25:42;13.75;11.25;7.00
73825;PMS5003;64145;55.060;73.168;2023-07-28T13:28:07;13.00;9.67;6.00
73825;PMS5003;64145;55.060;73.168;2023-07-28T13:30:33;13.00;11.00;7.00
73825;PMS5003;64145;55.060;73.168;2023-07-28T13:32:58;9.00;8.00;6.00
73825;PMS5003;64145;55.060;73.168;2023-07-28T13:35:24;9.00;9.00;6.00
73825;PMS5003;64145;55.060;73.168;2023-07-28T13:37:50;9.33;9.33;5.33
73825;PMS5003;64145;55.060;73.168;2023-07-28T13:40:15;8.00;8.00;5.00
73825;PMS5003;64145;55.060;73.168;2023-07-28T13:42:42;11.00;11.00;7.00
73825;PMS5003;64145;55.060;73.168;2023-07-28T13:45:08;15.00;14.33;9.00
73825;PMS5003;64145;55.060;73.168;2023-07-28T13:47:34;18.50;17.50;10.75
73825;PMS5003;64145;55.060;73.168;2023-07-28T13:49:59;25.67;25.33;15.00
73825;PMS5003;64145;55.060;73.168;2023-07-28T13:52:25;26.00;24.00;15.00
73825;PMS5003;64145;55.060;73.168;2023-07-28T13:54:51;25.00;22.67;14.00
73825;PMS5003;64145;55.060;73.168;2023-07-28T13:57:16;29.00;27.00;16.67